createdAt,value
2019-04-05T00:00:19.231Z,4.50
2019-04-05T00:02:47.845Z,4.50
2019-04-05T00:05:16.316Z,4.40
2019-04-05T00:07:44.797Z,4.40
2019-04-05T00:10:14.211Z,4.40
2019-04-05T00:12:42.821Z,4.50
2019-04-05T00:15:15.623Z,4.50
2019-04-05T00:17:41.482Z,4.40
2019-04-05T00:20:10.069Z,4.40
2019-04-05T00:22:38.537Z,4.40
2019-04-05T00:25:07.316Z,4.40
2019-04-05T00:27:35.965Z,4.50
2019-04-05T00:30:09.245Z,4.50
2019-04-05T00:32:37.686Z,4.40
2019-04-05T00:35:09.347Z,4.50
2019-04-05T00:37:37.790Z,4.60
2019-04-05T00:40:09.608Z,4.70
2019-04-05T00:42:38.047Z,4.70
2019-04-05T00:45:08.434Z,4.70
2019-04-05T00:47:37.151Z,4.70
2019-04-05T00:50:07.209Z,4.80
2019-04-05T00:52:36.478Z,4.80
2019-04-05T00:55:06.736Z,4.80
2019-04-05T00:57:35.250Z,4.90
2019-04-05T01:00:04.258Z,4.90
2019-04-05T01:02:32.774Z,4.90
2019-04-05T01:05:01.408Z,4.90
2019-04-05T01:07:29.998Z,5.00
2019-04-05T01:09:58.579Z,4.90
2019-04-05T01:12:27.513Z,4.90
2019-04-05T01:14:56.100Z,5.00
2019-04-05T01:17:25.426Z,5.00
2019-04-05T01:19:57.028Z,4.90
2019-04-05T01:22:27.741Z,4.80
2019-04-05T01:24:57.490Z,4.80
2019-04-05T01:27:27.073Z,4.80
2019-04-05T01:29:55.621Z,4.70
2019-04-05T01:32:24.138Z,4.80
2019-04-05T01:34:52.725Z,4.90
2019-04-05T01:37:21.834Z,4.90
2019-04-05T01:39:50.284Z,4.90
2019-04-05T01:42:19.377Z,4.90
2019-04-05T01:44:51.683Z,4.90
2019-04-05T01:47:19.246Z,4.90
2019-04-05T01:49:47.718Z,5.00
2019-04-05T01:52:16.698Z,4.90
2019-04-05T01:54:45.258Z,4.90
2019-04-05T01:57:13.702Z,4.70
2019-04-05T01:59:42.150Z,4.60
2019-04-05T02:02:10.823Z,4.70
2019-04-05T02:04:39.334Z,4.70
2019-04-05T02:07:08.022Z,4.70
2019-04-05T02:09:37.526Z,4.70
2019-04-05T02:12:06.223Z,4.70
2019-04-05T02:14:34.806Z,4.70
2019-04-05T02:17:03.441Z,4.80
2019-04-05T02:19:31.886Z,4.80
2019-04-05T02:22:00.338Z,4.80
2019-04-05T02:24:29.416Z,4.70
2019-04-05T02:26:57.932Z,4.80
2019-04-05T02:29:26.375Z,4.90
2019-04-05T02:31:55.115Z,4.80
2019-04-05T02:34:23.633Z,4.80
2019-04-05T02:36:52.102Z,4.80
2019-04-05T02:39:20.797Z,4.80
2019-04-05T02:41:49.691Z,4.80
2019-04-05T02:44:19.165Z,4.80
2019-04-05T02:46:48.842Z,4.80
2019-04-05T02:49:18.031Z,4.70
2019-04-05T02:51:48.831Z,4.80
2019-04-05T02:54:19.132Z,4.70
2019-04-05T02:56:48.720Z,4.70
2019-04-05T02:59:18.707Z,4.60
2019-04-05T03:01:48.585Z,4.70
2019-04-05T03:04:17.210Z,4.60
2019-04-05T03:06:46.183Z,4.50
2019-04-05T03:09:14.975Z,4.60
2019-04-05T03:11:44.153Z,4.50
2019-04-05T03:14:14.143Z,4.60
2019-04-05T03:16:45.826Z,4.50
2019-04-05T03:19:17.409Z,4.50
2019-04-05T03:21:49.063Z,4.60
2019-04-05T03:24:20.824Z,4.70
2019-04-05T03:26:55.062Z,4.60
2019-04-05T03:29:24.258Z,4.60
2019-04-05T03:31:53.302Z,4.60
2019-04-05T03:34:22.850Z,4.60
2019-04-05T03:36:52.396Z,4.60
2019-04-05T03:39:22.571Z,4.70
2019-04-05T03:41:52.282Z,4.60
2019-04-05T03:44:23.131Z,4.70
2019-04-05T03:46:57.193Z,4.60
2019-04-05T03:49:22.699Z,4.60
2019-04-05T03:51:51.592Z,4.60
2019-04-05T03:54:20.613Z,4.60
2019-04-05T03:56:49.904Z,4.50
2019-04-05T03:59:18.518Z,4.50
2019-04-05T04:01:47.410Z,4.50
2019-04-05T04:04:16.156Z,4.60
2019-04-05T04:06:44.856Z,4.70
2019-04-05T04:09:13.508Z,4.70
2019-04-05T04:11:42.259Z,4.70
2019-04-05T04:14:11.637Z,4.80
2019-04-05T04:16:40.432Z,4.80
2019-04-05T04:19:09.190Z,4.80
2019-04-05T04:21:56.969Z,4.80
2019-04-05T04:24:25.903Z,4.80
2019-04-05T04:26:54.465Z,4.80
2019-04-05T04:29:23.396Z,4.80
2019-04-05T04:31:52.505Z,4.80
2019-04-05T04:34:21.013Z,4.80
2019-04-05T04:36:49.901Z,4.70
2019-04-05T04:39:18.945Z,4.70
2019-04-05T04:41:47.610Z,4.80
2019-04-05T04:44:17.193Z,4.80
2019-04-05T04:46:48.078Z,4.80
2019-04-05T04:49:16.520Z,4.90
2019-04-05T04:51:45.478Z,4.90
2019-04-05T04:54:14.661Z,4.90
2019-04-05T04:56:43.345Z,4.90
2019-04-05T04:59:12.336Z,4.90
2019-04-05T05:01:40.806Z,4.90
2019-04-05T05:04:09.695Z,4.90
2019-04-05T05:06:38.374Z,4.90
2019-04-05T05:09:07.665Z,4.90
2019-04-05T05:11:36.441Z,4.90
2019-04-05T05:14:05.707Z,4.90
2019-04-05T05:16:34.520Z,4.90
2019-04-05T05:19:03.033Z,4.90
2019-04-05T05:21:32.018Z,4.80
2019-04-05T05:24:00.838Z,4.80
2019-04-05T05:26:29.822Z,4.80
2019-04-05T05:28:58.505Z,4.90
2019-04-05T05:31:27.044Z,4.80
2019-04-05T05:33:55.563Z,5.00
2019-04-05T05:36:24.254Z,5.00
2019-04-05T05:38:52.959Z,5.00
2019-04-05T05:41:21.406Z,5.10
2019-04-05T05:43:49.927Z,5.20
2019-04-05T05:46:18.414Z,5.10
2019-04-05T05:48:46.926Z,5.10
2019-04-05T05:51:15.437Z,5.00
2019-04-05T05:53:44.277Z,5.10
2019-04-05T05:56:12.717Z,5.00
2019-04-05T05:58:41.233Z,5.00
2019-04-05T06:01:09.775Z,4.90
2019-04-05T06:03:38.222Z,4.80
2019-04-05T06:06:06.667Z,4.80
2019-04-05T06:08:35.134Z,4.80
2019-04-05T06:11:03.592Z,4.90
2019-04-05T06:13:32.101Z,5.10
2019-04-05T06:16:00.678Z,5.10
2019-04-05T06:18:29.109Z,5.20
2019-04-05T06:20:57.553Z,5.20
2019-04-05T06:23:33.492Z,5.50
2019-04-05T06:25:56.266Z,5.60
2019-04-05T06:28:24.713Z,5.60
2019-04-05T06:30:53.525Z,5.50
2019-04-05T06:35:39.483Z,5.40
2019-04-05T06:35:52.150Z,5.40
2019-04-05T06:38:20.613Z,5.60
2019-04-05T06:40:49.066Z,5.50
2019-04-05T06:43:17.506Z,5.70
2019-04-05T06:45:46.091Z,5.60
2019-04-05T06:48:19.475Z,5.70
2019-04-05T06:50:47.262Z,5.70
2019-04-05T06:53:15.062Z,5.90
2019-04-05T06:55:43.507Z,5.90
2019-04-05T06:58:19.876Z,6.00
2019-04-05T07:00:56.107Z,6.10
2019-04-05T07:03:13.714Z,6.30
2019-04-05T07:05:42.319Z,6.30
2019-04-05T07:08:10.792Z,6.30
2019-04-05T07:10:39.239Z,6.40
2019-04-05T07:13:07.791Z,6.70
2019-04-05T07:15:36.594Z,6.70
2019-04-05T07:18:05.211Z,6.70
2019-04-05T07:20:33.661Z,6.70
2019-04-05T07:23:02.361Z,6.70
2019-04-05T07:25:30.805Z,6.70
2019-04-05T07:27:59.249Z,6.80
2019-04-05T07:30:28.991Z,7.00
2019-04-05T07:32:57.609Z,7.30
2019-04-05T07:35:33.359Z,7.20
2019-04-05T07:37:56.702Z,7.40
2019-04-05T07:40:25.227Z,7.40
2019-04-05T07:42:53.669Z,7.40
2019-04-05T07:45:22.143Z,7.50
2019-04-05T07:47:50.598Z,7.40
2019-04-05T07:50:19.312Z,7.60
2019-04-05T07:52:47.854Z,7.60
2019-04-05T07:55:16.547Z,7.70
2019-04-05T07:57:44.993Z,7.80
2019-04-05T08:00:42.518Z,7.90
2019-04-05T08:03:11.310Z,8.00
2019-04-05T08:05:39.817Z,8.10
2019-04-05T08:08:11.405Z,8.10
2019-04-05T08:10:40.166Z,8.00
2019-04-05T08:13:08.681Z,8.00
2019-04-05T08:15:37.419Z,8.00
2019-04-05T08:18:05.861Z,8.00
2019-04-05T08:20:34.311Z,8.10
2019-04-05T08:23:02.784Z,8.10
2019-04-05T08:25:31.221Z,8.10
2019-04-05T08:27:59.669Z,8.10
2019-04-05T08:30:28.407Z,8.30
2019-04-05T08:32:56.854Z,7.90
2019-04-05T08:35:25.298Z,8.00
2019-04-05T08:37:53.769Z,8.10
2019-04-05T08:40:22.286Z,8.10
2019-04-05T08:42:50.801Z,8.00
2019-04-05T08:45:19.521Z,8.20
2019-04-05T08:47:47.965Z,8.30
2019-04-05T08:50:16.603Z,8.20
2019-04-05T08:52:46.634Z,8.10
2019-04-05T08:55:15.278Z,8.00
2019-04-05T08:57:43.725Z,8.20
2019-04-05T09:00:12.650Z,8.50
2019-04-05T09:02:41.179Z,8.70
2019-04-05T09:05:09.922Z,8.90
2019-04-05T09:07:38.386Z,9.10
2019-04-05T09:10:07.170Z,9.00
2019-04-05T09:12:35.686Z,9.10
2019-04-05T09:15:08.437Z,9.30
2019-04-05T09:17:36.988Z,9.40
2019-04-05T09:20:05.913Z,9.50
2019-04-05T09:22:34.474Z,9.50
2019-04-05T09:25:03.258Z,9.60
2019-04-05T09:27:31.706Z,9.90
2019-04-05T09:30:00.338Z,10.00
2019-04-05T09:32:28.788Z,10.10
2019-04-05T09:34:57.234Z,9.90
2019-04-05T09:37:25.702Z,10.20
2019-04-05T09:39:54.149Z,10.60
2019-04-05T09:42:22.614Z,10.50
2019-04-05T09:44:51.193Z,10.60
2019-04-05T09:47:19.637Z,10.50
2019-04-05T09:49:48.163Z,10.70
2019-04-05T09:52:17.186Z,11.00
2019-04-05T09:54:45.640Z,11.50
2019-04-05T09:57:14.082Z,11.70
2019-04-05T09:59:42.770Z,12.00
2019-04-05T10:02:11.454Z,12.30
2019-04-05T10:04:39.897Z,12.30
2019-04-05T10:07:08.917Z,12.00
2019-04-05T10:09:37.375Z,12.20
2019-04-05T10:12:05.898Z,12.30
2019-04-05T10:14:34.523Z,12.30
2019-04-05T10:17:02.970Z,12.10
2019-04-05T10:19:31.423Z,11.80
2019-04-05T10:21:59.901Z,11.30
2019-04-05T10:24:28.351Z,11.40
2019-04-05T10:26:56.802Z,11.30
2019-04-05T10:29:25.306Z,11.70
2019-04-05T10:31:53.762Z,11.60
2019-04-05T10:34:22.209Z,11.90
2019-04-05T10:36:50.802Z,11.60
2019-04-05T10:39:19.252Z,11.60
2019-04-05T10:41:47.874Z,11.40
2019-04-05T10:44:16.726Z,11.30
2019-04-05T10:46:45.246Z,11.20
2019-04-05T10:49:15.182Z,11.10
2019-04-05T10:51:44.023Z,11.00
2019-04-05T10:54:12.468Z,10.70
2019-04-05T10:56:40.914Z,10.80
2019-04-05T10:59:09.510Z,10.80
2019-04-05T11:01:37.954Z,10.70
2019-04-05T11:04:06.402Z,11.10
2019-04-05T11:06:35.295Z,10.90
2019-04-05T11:09:05.306Z,11.00
2019-04-05T11:11:33.753Z,10.90
2019-04-05T11:14:13.259Z,10.80
2019-04-05T11:16:32.544Z,11.00
2019-04-05T11:19:02.197Z,10.80
2019-04-05T11:21:31.293Z,10.70
2019-04-05T11:23:59.752Z,10.50
2019-04-05T11:26:28.210Z,10.40
2019-04-05T11:28:56.880Z,10.60
2019-04-05T11:31:26.351Z,10.50
2019-04-05T11:33:55.042Z,10.40
2019-04-05T11:36:25.176Z,10.20
2019-04-05T11:38:54.224Z,10.10
2019-04-05T11:41:25.878Z,9.90
2019-04-05T11:43:56.389Z,10.00
2019-04-05T11:46:25.247Z,10.00
2019-04-05T11:48:54.035Z,9.90
2019-04-05T11:51:22.579Z,9.90
2019-04-05T11:53:51.037Z,10.00
2019-04-05T11:56:19.942Z,10.00
2019-04-05T11:58:49.717Z,9.90
2019-04-05T12:01:23.701Z,9.90
2019-04-05T12:03:52.232Z,9.90
2019-04-05T12:06:20.715Z,10.00
2019-04-05T12:08:49.159Z,10.00
2019-04-05T12:11:17.693Z,10.20
2019-04-05T12:13:47.774Z,10.20
2019-04-05T12:16:16.468Z,10.40
2019-04-05T12:18:44.935Z,10.30
2019-04-05T12:21:13.463Z,10.60
2019-04-05T12:23:41.938Z,10.50
2019-04-05T12:26:10.390Z,10.50
2019-04-05T12:28:38.864Z,10.60
2019-04-05T12:31:07.309Z,10.50
2019-04-05T12:33:35.854Z,10.50
2019-04-05T12:36:05.497Z,10.20
2019-04-05T12:38:34.032Z,10.20
2019-04-05T12:41:04.184Z,10.40
2019-04-05T12:43:33.126Z,10.40
2019-04-05T12:46:01.820Z,10.30
2019-04-05T12:48:30.275Z,10.20
2019-04-05T12:51:01.451Z,10.40
2019-04-05T12:53:29.176Z,10.50
2019-04-05T12:55:57.622Z,10.50
2019-04-05T12:58:26.760Z,10.60
2019-04-05T13:00:56.208Z,10.70
2019-04-05T13:03:25.528Z,10.60
2019-04-05T13:05:56.929Z,10.50
2019-04-05T13:08:24.349Z,10.60
2019-04-05T13:10:55.507Z,10.40
2019-04-05T13:13:26.438Z,10.60
2019-04-05T13:15:53.786Z,10.90
2019-04-05T13:18:24.995Z,10.80
2019-04-05T13:20:52.439Z,11.00
2019-04-05T13:23:20.958Z,11.10
2019-04-05T13:25:49.409Z,11.10
2019-04-05T13:28:18.923Z,11.00
2019-04-05T13:30:48.408Z,10.90
2019-04-05T13:33:18.024Z,11.00
2019-04-05T13:35:46.510Z,11.00
2019-04-05T13:38:14.964Z,11.20
2019-04-05T13:40:43.410Z,11.10
2019-04-05T13:43:11.917Z,10.90
2019-04-05T13:45:40.653Z,10.90
2019-04-05T13:48:09.720Z,11.00
2019-04-05T13:50:41.440Z,11.10
2019-04-05T13:53:11.145Z,11.00
2019-04-05T13:55:40.771Z,11.10
2019-04-05T13:58:11.150Z,11.30
2019-04-05T14:00:39.493Z,11.30
2019-04-05T14:03:07.937Z,11.30
2019-04-05T14:05:36.874Z,11.20
2019-04-05T14:08:10.294Z,11.00
2019-04-05T14:10:35.495Z,11.00
2019-04-05T14:13:04.310Z,11.00
2019-04-05T14:15:32.757Z,11.00
2019-04-05T14:18:01.208Z,10.90
2019-04-05T14:20:29.821Z,10.60
2019-04-05T14:22:58.274Z,10.60
2019-04-05T14:25:29.948Z,10.60
2019-04-05T14:27:57.389Z,10.40
2019-04-05T14:30:25.906Z,10.40
2019-04-05T14:32:55.724Z,10.30
2019-04-05T14:35:25.345Z,10.40
2019-04-05T14:37:54.555Z,10.40
2019-04-05T14:40:23.857Z,10.50
2019-04-05T14:42:52.355Z,10.50
2019-04-05T14:45:20.869Z,10.40
2019-04-05T14:47:49.319Z,10.30
2019-04-05T14:50:18.526Z,10.30
2019-04-05T14:52:49.460Z,10.30
2019-04-05T14:55:17.149Z,10.20
2019-04-05T14:57:45.715Z,10.30
2019-04-05T15:00:16.026Z,10.20
2019-04-05T15:02:44.545Z,10.20
2019-04-05T15:05:13.477Z,10.10
2019-04-05T15:07:41.934Z,10.10
2019-04-05T15:10:10.821Z,10.10
2019-04-05T15:12:39.744Z,10.00
2019-04-05T15:15:08.633Z,9.90
2019-04-05T15:17:47.411Z,10.00
2019-04-05T15:20:08.001Z,10.00
2019-04-05T15:22:36.513Z,9.90
2019-04-05T15:25:08.141Z,9.80
2019-04-05T15:27:36.853Z,10.00
2019-04-05T15:30:06.737Z,9.90
2019-04-05T15:32:36.827Z,9.90
2019-04-05T15:35:07.446Z,10.10
2019-04-05T15:37:37.544Z,10.20
2019-04-05T15:40:08.325Z,10.10
2019-04-05T15:42:37.041Z,10.10
2019-04-05T15:45:09.497Z,10.00
2019-04-05T15:47:38.316Z,10.10
2019-04-05T15:50:08.294Z,9.90
2019-04-05T15:52:36.746Z,10.00
2019-04-05T15:55:08.326Z,10.10
2019-04-05T15:57:39.436Z,9.90
2019-04-05T16:00:11.084Z,10.00
2019-04-05T16:02:39.599Z,10.00
2019-04-05T16:05:09.389Z,9.90
2019-04-05T16:07:37.892Z,9.90
2019-04-05T16:10:10.656Z,9.90
2019-04-05T16:12:39.533Z,9.70
2019-04-05T16:15:09.479Z,9.70
2019-04-05T16:17:37.926Z,9.70
2019-04-05T16:20:08.801Z,9.70
2019-04-05T16:22:37.246Z,9.60
2019-04-05T16:25:06.735Z,9.60
2019-04-05T16:27:35.356Z,9.60
2019-04-05T16:30:24.662Z,9.50
2019-04-05T16:32:53.143Z,9.60
2019-04-05T16:35:21.591Z,9.60
2019-04-05T16:37:50.033Z,9.50
2019-04-05T16:40:18.842Z,9.40
2019-04-05T16:42:47.285Z,9.40
2019-04-05T16:45:16.630Z,9.40
2019-04-05T16:47:45.077Z,9.40
2019-04-05T16:50:14.158Z,9.40
2019-04-05T16:52:45.041Z,9.20
2019-04-05T16:55:13.352Z,9.20
2019-04-05T16:57:41.855Z,9.20
2019-04-05T17:00:12.098Z,9.10
2019-04-05T17:02:40.606Z,9.10
2019-04-05T17:05:09.597Z,9.00
2019-04-05T17:07:38.513Z,9.00
2019-04-05T17:10:07.086Z,9.00
2019-04-05T17:12:35.609Z,9.00
2019-04-05T17:15:06.405Z,9.00
2019-04-05T17:17:35.022Z,9.10
2019-04-05T17:20:04.502Z,9.10
2019-04-05T17:22:33.327Z,9.10
2019-04-05T17:25:01.774Z,9.00
2019-04-05T17:27:30.231Z,8.90
2019-04-05T17:29:58.850Z,8.80
2019-04-05T17:32:27.305Z,8.80
2019-04-05T17:34:55.746Z,8.70
2019-04-05T17:37:26.529Z,8.70
2019-04-05T17:39:54.449Z,8.70
2019-04-05T17:42:22.902Z,8.70
2019-04-05T17:44:51.373Z,8.60
2019-04-05T17:47:19.819Z,8.70
2019-04-05T17:49:48.263Z,8.60
2019-04-05T17:52:16.974Z,8.60
2019-04-05T17:54:45.417Z,8.60
2019-04-05T17:57:13.934Z,8.60
2019-04-05T17:59:42.730Z,8.60
2019-04-05T18:02:11.187Z,8.60
2019-04-05T18:04:39.630Z,8.60
2019-04-05T18:07:08.097Z,8.50
2019-04-05T18:09:36.560Z,8.60
2019-04-05T18:12:05.069Z,8.60
2019-04-05T18:14:33.999Z,8.50
2019-04-05T18:17:02.442Z,8.50
2019-04-05T18:19:30.960Z,8.60
2019-04-05T18:21:59.703Z,8.50
2019-04-05T18:24:28.149Z,8.50
2019-04-05T18:26:56.589Z,8.50
2019-04-05T18:29:25.896Z,8.60
2019-04-05T18:31:54.337Z,8.50
2019-04-05T18:34:22.789Z,8.50
2019-04-05T18:36:51.254Z,8.50
2019-04-05T18:39:19.702Z,8.50
2019-04-05T18:41:48.148Z,8.40
2019-04-05T18:44:16.623Z,8.40
2019-04-05T18:46:45.066Z,8.40
2019-04-05T18:49:13.524Z,8.40
2019-04-05T18:51:42.058Z,8.40
2019-04-05T18:54:10.501Z,8.40
2019-04-05T18:56:38.948Z,8.50
2019-04-05T18:59:07.422Z,8.50
2019-04-05T19:01:35.869Z,8.50
2019-04-05T19:04:05.627Z,8.50
2019-04-05T19:06:34.429Z,8.40
2019-04-05T19:09:04.518Z,8.40
2019-04-05T19:11:33.122Z,8.40
2019-04-05T19:14:01.915Z,8.50
2019-04-05T19:16:30.354Z,8.40
2019-04-05T19:18:58.799Z,8.40
2019-04-05T19:21:27.270Z,8.40
2019-04-05T19:23:55.718Z,8.50
2019-04-05T19:26:24.178Z,8.50
2019-04-05T19:28:52.659Z,8.40
2019-04-05T19:48:52.442Z,8.40
2019-04-05T19:51:20.885Z,8.40
2019-04-05T19:53:49.330Z,8.50
2019-04-05T19:56:17.947Z,8.60
2019-04-05T19:58:46.393Z,8.60
2019-04-05T20:01:14.906Z,8.60
2019-04-05T20:03:43.373Z,8.50
2019-04-05T20:06:11.891Z,8.50
2019-04-05T20:08:40.446Z,8.40
2019-04-05T20:11:08.891Z,8.40
2019-04-05T20:13:37.338Z,8.40
2019-04-05T20:16:05.877Z,8.50
2019-04-05T20:18:34.317Z,8.40
2019-04-05T20:21:02.858Z,8.40
2019-04-05T20:23:31.315Z,8.40
2019-04-05T20:25:59.767Z,8.20
2019-04-05T20:28:28.239Z,8.20
2019-04-05T20:30:56.868Z,8.10
2019-04-05T20:33:25.389Z,8.10
2019-04-05T20:35:54.142Z,8.10
2019-04-05T20:38:22.590Z,8.00
2019-04-05T20:40:51.100Z,7.90
2019-04-05T20:43:19.650Z,7.70
2019-04-05T20:45:48.128Z,7.60
2019-04-05T20:48:16.578Z,7.60
2019-04-05T20:50:45.044Z,7.50
2019-04-05T20:53:13.572Z,7.40
2019-04-05T20:55:42.014Z,7.50
2019-04-05T20:58:10.612Z,7.40
2019-04-05T21:00:39.066Z,7.40
2019-04-05T21:03:07.513Z,7.40
2019-04-05T21:05:35.981Z,7.30
2019-04-05T21:08:04.566Z,7.20
2019-04-05T21:10:33.046Z,7.20
2019-04-05T21:13:01.493Z,7.00
2019-04-05T21:15:29.943Z,7.00
2019-04-05T21:17:58.678Z,6.80
2019-04-05T21:20:27.122Z,6.70
2019-04-05T21:25:24.057Z,6.40
2019-04-05T21:27:52.506Z,6.50
2019-04-05T21:30:21.087Z,6.40
2019-04-05T21:32:49.577Z,6.30
2019-04-05T21:35:18.026Z,6.10
2019-04-05T21:37:46.474Z,6.00
2019-04-05T21:40:15.288Z,5.90
2019-04-05T21:42:43.734Z,5.70
2019-04-05T21:45:12.316Z,5.70
2019-04-05T21:47:41.325Z,5.50
2019-04-05T21:50:10.578Z,5.50
2019-04-05T21:52:39.093Z,5.40
2019-04-05T21:55:08.129Z,5.40
2019-04-05T21:57:36.589Z,5.30
2019-04-05T22:00:20.607Z,5.20
2019-04-05T22:02:49.265Z,5.10
2019-04-05T22:05:17.714Z,5.10
2019-04-05T22:07:46.177Z,5.10
2019-04-05T22:10:14.876Z,5.20
2019-04-05T22:12:43.317Z,5.10
2019-04-05T22:15:11.886Z,5.10
2019-04-05T22:17:40.406Z,5.00
2019-04-05T22:20:09.586Z,5.10
2019-04-05T22:22:38.061Z,5.10
2019-04-05T22:25:06.741Z,5.00
2019-04-05T22:27:35.254Z,5.00
2019-04-05T22:30:05.651Z,4.90
2019-04-05T22:32:34.098Z,4.90
2019-04-05T22:35:02.613Z,4.80
2019-04-05T22:37:31.266Z,4.80
2019-04-05T22:39:59.710Z,4.70
2019-04-05T22:42:28.153Z,4.60
2019-04-05T22:44:56.847Z,4.50
2019-04-05T22:47:25.303Z,4.50
2019-04-05T22:49:53.818Z,4.50
2019-04-05T22:52:22.292Z,4.50
2019-04-05T22:54:50.734Z,4.50
2019-04-05T22:57:19.182Z,4.40
2019-04-05T22:59:47.657Z,4.40
2019-04-05T23:02:16.105Z,4.30
2019-04-05T23:04:44.546Z,4.30
2019-04-05T23:07:13.014Z,4.20
2019-04-05T23:09:41.463Z,4.30
2019-04-05T23:12:09.901Z,4.30
2019-04-05T23:14:38.581Z,4.30
2019-04-05T23:17:07.102Z,4.30
2019-04-05T23:19:35.547Z,4.30
2019-04-05T23:22:04.250Z,4.30
2019-04-05T23:24:32.968Z,4.30
2019-04-05T23:27:01.406Z,4.20
2019-04-05T23:29:29.964Z,4.30
2019-04-05T23:31:58.405Z,4.20
2019-04-05T23:34:26.853Z,4.20
2019-04-05T23:36:55.438Z,4.10
2019-04-05T23:39:23.885Z,4.10
2019-04-05T23:41:52.329Z,4.00
2019-04-05T23:44:20.800Z,3.90
2019-04-05T23:46:49.277Z,3.90
2019-04-05T23:49:17.768Z,3.90
2019-04-05T23:51:46.310Z,4.00
2019-04-05T23:54:14.749Z,4.10
2019-04-05T23:56:43.205Z,4.10
2019-04-05T23:59:11.985Z,4.00
